Time;durP1;ratioP1;P1;durP2;ratioP2;P2;SDS_P1;SDS_P2;PMS_P1;PMS_P2;Temp;Humidity;BMP_temperature;BMP_pressure;BME280_temperature;BME280_humidity;BME280_pressure;Samples;Min_cycle;Max_cycle;Signal;HPM_P1;HPM_P2
2022/05/03 00:01:18;;;;;;;4.60;4.17;;;14.60;61.30;;;;;;955432;149;27319;-74
2022/05/03 00:03:53;;;;;;;4.30;3.87;;;14.60;61.30;;;;;;957324;146;27336;-74
2022/05/03 00:06:42;;;;;;;7.60;3.97;;;14.60;61.40;;;;;;957198;149;27369;-74
2022/05/03 00:09:08;;;;;;;4.43;4.10;;;14.60;61.60;;;;;;956048;149;27346;-74
2022/05/03 00:11:52;;;;;;;4.20;3.77;;;14.60;61.50;;;;;;958333;149;27359;-74
2022/05/03 00:14:22;;;;;;;4.40;3.93;;;14.60;61.90;;;;;;957319;149;27304;-74
2022/05/03 00:16:48;;;;;;;5.30;3.40;;;14.60;61.90;;;;;;954915;149;27915;-74
2022/05/03 00:19:15;;;;;;;4.10;3.80;;;14.60;61.90;;;;;;957304;149;27636;-74
2022/05/03 00:21:41;;;;;;;4.03;3.73;;;14.50;62.00;;;;;;958605;149;27354;-74
2022/05/03 00:24:08;;;;;;;3.80;3.50;;;14.50;62.20;;;;;;957945;149;27331;-73
2022/05/03 00:26:35;;;;;;;3.93;3.63;;;14.50;62.30;;;;;;957948;149;27897;-73
2022/05/03 00:29:01;;;;;;;4.50;4.10;;;14.50;62.40;;;;;;958827;149;27404;-74
2022/05/03 00:31:28;;;;;;;5.07;4.60;;;14.50;62.50;;;;;;957365;149;27418;-74
2022/05/03 00:33:54;;;;;;;4.47;4.07;;;14.50;62.30;;;;;;958263;149;27331;-74
2022/05/03 00:36:21;;;;;;;4.97;4.20;;;14.50;62.30;;;;;;958022;146;27363;-74
2022/05/03 00:38:48;;;;;;;8.03;4.60;;;14.50;62.40;;;;;;957504;149;27747;-74
2022/05/03 00:41:35;;;;;;;5.73;4.70;;;14.50;62.50;;;;;;958281;149;27420;-74
2022/05/03 00:47:17;;;;;;;4.50;4.20;;;14.50;62.40;;;;;;954462;149;27445;-74
2022/05/03 00:50:08;;;;;;;5.30;4.10;;;14.60;62.40;;;;;;958110;149;27443;-74
2022/05/03 00:52:50;;;;;;;4.60;4.20;;;14.60;62.40;;;;;;956756;148;27422;-74
2022/05/03 00:55:50;;;;;;;4.30;4.00;;;14.60;62.20;;;;;;956742;148;27474;-74
2022/05/03 00:58:31;;;;;;;4.67;4.27;;;14.60;62.30;;;;;;957777;149;27380;-74
2022/05/03 01:01:16;;;;;;;4.60;4.20;;;14.60;62.20;;;;;;957781;149;27457;-73
2022/05/03 01:04:13;;;;;;;5.07;4.57;;;14.60;62.30;;;;;;956733;149;27351;-74
2022/05/03 01:06:52;;;;;;;5.20;4.67;;;14.60;61.50;;;;;;957150;149;27316;-74
2022/05/03 01:09:18;;;;;;;4.67;4.23;;;14.60;62.30;;;;;;956044;149;27314;-74
2022/05/03 01:12:00;;;;;;;4.43;4.13;;;14.60;62.40;;;;;;957510;149;27864;-74
2022/05/03 01:14:48;;;;;;;4.43;4.07;;;14.60;62.50;;;;;;957362;149;28274;-74
2022/05/03 01:17:32;;;;;;;4.43;4.03;;;14.60;62.60;;;;;;957630;149;27346;-75
2022/05/03 01:20:08;;;;;;;4.77;4.23;;;14.60;62.60;;;;;;955759;149;27311;-74
2022/05/03 01:22:59;;;;;;;5.13;4.50;;;14.60;62.70;;;;;;957420;149;27387;-74
2022/05/03 01:25:50;;;;;;;4.27;3.87;;;14.50;62.90;;;;;;958164;148;27308;-74
2022/05/03 01:28:29;;;;;;;4.87;4.37;;;14.50;62.90;;;;;;958480;149;27295;-74
2022/05/03 01:30:55;;;;;;;4.30;3.87;;;14.40;62.80;;;;;;958557;149;27315;-74
2022/05/03 01:33:25;;;;;;;4.57;4.17;;;14.40;63.00;;;;;;958439;149;27676;-74
2022/05/03 01:35:51;;;;;;;4.33;3.93;;;14.40;63.20;;;;;;954781;149;28324;-74
2022/05/03 01:38:18;;;;;;;4.77;4.37;;;14.40;63.30;;;;;;952491;149;27342;-74
2022/05/03 01:43:23;;;;;;;4.90;4.50;;;14.30;63.60;;;;;;977016;145;37290;-73
2022/05/03 01:46:11;;;;;;;4.90;4.50;;;14.20;64.00;;;;;;963487;147;27331;-75
2022/05/03 01:51:53;;;;;;;4.90;4.30;;;14.20;64.10;;;;;;964040;147;27695;-75
2022/05/03 01:54:41;;;;;;;5.00;4.60;;;14.20;64.00;;;;;;966398;147;27408;-74
2022/05/03 01:57:25;;;;;;;4.90;4.50;;;14.20;64.20;;;;;;966334;147;27285;-74
2022/05/03 02:00:07;;;;;;;5.33;4.77;;;14.20;64.30;;;;;;963434;147;27271;-74
2022/05/03 02:03:01;;;;;;;5.30;4.80;;;14.20;64.60;;;;;;965166;147;27251;-75
2022/05/03 02:05:39;;;;;;;5.30;4.90;;;14.20;64.70;;;;;;946051;150;27357;-74
2022/05/03 02:08:06;;;;;;;5.27;4.53;;;14.20;64.70;;;;;;946221;150;27877;-74
2022/05/03 02:10:47;;;;;;;5.47;4.97;;;14.20;64.90;;;;;;945442;150;27332;-74
2022/05/03 02:13:28;;;;;;;6.43;4.50;;;14.20;65.10;;;;;;946058;149;27385;-73
2022/05/03 02:15:52;;;;;;;5.13;4.73;;;14.20;65.00;;;;;;944759;150;27391;-74
2022/05/03 02:18:23;;;;;;;6.57;5.13;;;14.20;64.90;;;;;;944040;149;27309;-74
2022/05/03 02:21:09;;;;;;;5.27;4.73;;;14.30;65.20;;;;;;944687;150;27345;-74
2022/05/03 02:23:36;;;;;;;6.00;5.37;;;14.30;65.20;;;;;;945860;150;27326;-74
2022/05/03 02:26:24;;;;;;;4.90;4.50;;;14.20;65.10;;;;;;944615;150;27402;-74
2022/05/03 02:29:12;;;;;;;4.77;4.37;;;14.30;65.30;;;;;;946849;149;27394;-74
2022/05/03 02:31:38;;;;;;;4.97;4.47;;;14.30;65.20;;;;;;944345;150;27340;-74
2022/05/03 02:34:08;;;;;;;5.17;4.67;;;14.30;65.10;;;;;;945088;150;27398;-74
2022/05/03 02:36:34;;;;;;;5.60;5.10;;;14.30;65.20;;;;;;934914;150;27360;-74
2022/05/03 02:39:04;;;;;;;5.87;5.37;;;14.30;65.40;;;;;;944014;149;27778;-74
2022/05/03 02:41:39;;;;;;;5.90;5.40;;;14.40;65.50;;;;;;942691;149;27798;-73
2022/05/03 02:44:06;;;;;;;5.30;4.80;;;14.30;65.50;;;;;;938342;150;27655;-73
2022/05/03 02:46:38;;;;;;;4.63;4.33;;;14.40;65.50;;;;;;939279;151;27331;-74
2022/05/03 02:49:06;;;;;;;4.73;4.33;;;14.40;65.40;;;;;;940229;150;27366;-74
2022/05/03 02:51:34;;;;;;;4.80;4.23;;;14.40;64.80;;;;;;939752;150;27284;-74
2022/05/03 02:54:01;;;;;;;5.07;4.67;;;14.40;65.50;;;;;;933109;151;27284;-74
2022/05/03 02:56:45;;;;;;;4.50;4.20;;;14.40;65.70;;;;;;938223;151;27679;-73
2022/05/03 03:01:47;;;;;;;4.70;4.30;;;14.30;65.70;;;;;;937554;150;27905;-74
2022/05/03 03:02:05;;;;;;;5.00;4.60;;;14.30;65.70;;;;;;937828;150;27464;-74
2022/05/03 03:04:53;;;;;;;5.23;4.70;;;14.30;65.70;;;;;;937496;150;28109;-74
2022/05/03 03:07:19;;;;;;;5.30;4.80;;;14.20;65.70;;;;;;928848;150;27437;-74
2022/05/03 03:10:04;;;;;;;6.60;4.90;;;14.20;65.80;;;;;;930524;150;27372;-74
2022/05/03 03:12:55;;;;;;;5.07;4.67;;;14.20;66.10;;;;;;939772;150;27367;-75
2022/05/03 03:15:28;;;;;;;5.53;4.73;;;14.10;66.10;;;;;;931496;150;27387;-75
2022/05/03 03:17:54;;;;;;;5.63;5.17;;;14.10;66.10;;;;;;930800;150;27361;-75
2022/05/03 03:20:27;;;;;;;6.03;5.33;;;14.10;66.30;;;;;;932047;150;28035;-74
2022/05/03 03:22:54;;;;;;;4.93;4.53;;;14.10;66.50;;;;;;945793;147;27285;-74
2022/05/03 03:25:20;;;;;;;5.60;5.20;;;14.10;66.60;;;;;;944648;147;27346;-74
2022/05/03 03:27:47;;;;;;;6.43;5.53;;;14.10;66.70;;;;;;946185;147;27369;-74
2022/05/03 03:30:13;;;;;;;5.63;5.10;;;14.10;66.70;;;;;;944714;147;27374;-74
2022/05/03 03:32:42;;;;;;;4.83;4.53;;;14.10;66.80;;;;;;945199;147;27427;-74
2022/05/03 03:35:09;;;;;;;5.33;4.83;;;14.10;66.80;;;;;;946242;147;27342;-74
2022/05/03 03:37:36;;;;;;;5.73;5.23;;;14.20;66.90;;;;;;946504;147;27368;-74
2022/05/03 03:40:02;;;;;;;5.23;4.83;;;14.20;67.00;;;;;;947599;147;27345;-74
2022/05/03 03:42:29;;;;;;;4.80;4.40;;;14.20;67.10;;;;;;943876;147;27370;-74
2022/05/03 03:45:01;;;;;;;5.10;4.70;;;14.20;67.20;;;;;;936831;151;27355;-74
2022/05/03 03:47:28;;;;;;;4.97;4.57;;;14.20;67.20;;;;;;926011;154;27811;-74
2022/05/03 03:49:54;;;;;;;5.23;4.83;;;14.20;67.20;;;;;;923085;154;27410;-74
2022/05/03 03:52:21;;;;;;;5.93;5.27;;;14.20;68.10;;;;;;932393;151;27475;-74
2022/05/03 03:54:48;;;;;;;5.33;4.90;;;14.20;67.20;;;;;;932015;152;27447;-74
2022/05/03 03:57:14;;;;;;;5.77;5.27;;;14.20;67.20;;;;;;938427;151;27284;-74
2022/05/03 03:59:41;;;;;;;5.73;5.00;;;14.20;67.40;;;;;;925227;151;27348;-74
2022/05/03 04:02:08;;;;;;;5.20;4.73;;;14.20;67.40;;;;;;925044;153;27382;-73
2022/05/03 04:04:37;;;;;;;5.30;4.90;;;14.10;67.40;;;;;;924702;153;27415;-73
2022/05/03 04:07:03;;;;;;;5.87;5.30;;;14.10;67.50;;;;;;938280;151;27454;-73
2022/05/03 04:09:30;;;;;;;5.17;4.77;;;14.10;67.60;;;;;;932528;151;27345;-73
2022/05/03 04:11:58;;;;;;;4.90;4.50;;;14.10;67.80;;;;;;936913;151;27436;-73
2022/05/03 04:14:23;;;;;;;5.40;5.00;;;14.10;67.90;;;;;;935845;150;27410;-73
2022/05/03 04:16:50;;;;;;;5.23;4.73;;;14.10;68.10;;;;;;920759;154;27360;-74
2022/05/03 04:19:16;;;;;;;5.53;5.03;;;14.10;68.20;;;;;;939127;151;28479;-74
2022/05/03 04:21:43;;;;;;;5.67;5.07;;;14.10;68.30;;;;;;937102;151;27426;-74
2022/05/03 04:24:09;;;;;;;5.43;4.93;;;14.10;68.30;;;;;;938230;151;27901;-73
2022/05/03 04:26:36;;;;;;;6.00;5.33;;;14.10;68.50;;;;;;939781;151;27332;-73
2022/05/03 04:29:03;;;;;;;5.03;4.63;;;14.10;68.60;;;;;;939102;151;27463;-74
2022/05/03 04:31:29;;;;;;;5.83;5.33;;;14.10;68.70;;;;;;939315;151;27377;-73
2022/05/03 04:33:56;;;;;;;5.33;4.67;;;14.10;68.80;;;;;;939812;151;27262;-74
2022/05/03 04:36:22;;;;;;;5.47;4.97;;;14.10;68.80;;;;;;937772;151;27341;-74
2022/05/03 04:38:49;;;;;;;6.07;5.10;;;14.10;68.90;;;;;;940078;151;27330;-74
2022/05/03 04:41:16;;;;;;;7.83;5.60;;;14.20;69.10;;;;;;940050;151;27415;-74
2022/05/03 04:43:42;;;;;;;5.90;5.40;;;14.20;69.10;;;;;;938314;151;27383;-73
2022/05/03 04:46:09;;;;;;;5.40;4.90;;;14.20;69.20;;;;;;939077;151;28587;-74
2022/05/03 04:48:35;;;;;;;5.83;5.30;;;14.20;69.20;;;;;;936820;151;27337;-73
2022/05/03 04:51:02;;;;;;;5.17;4.73;;;14.20;69.20;;;;;;939656;151;27278;-74
2022/05/03 04:53:28;;;;;;;5.87;5.37;;;14.30;69.40;;;;;;939378;151;27390;-74
2022/05/03 04:55:55;;;;;;;5.67;5.17;;;14.30;69.40;;;;;;939003;151;27931;-73
2022/05/03 04:58:22;;;;;;;5.63;5.23;;;14.30;69.50;;;;;;937723;148;27466;-73
2022/05/03 05:00:48;;;;;;;5.93;5.43;;;14.40;70.30;;;;;;938735;151;27333;-73
2022/05/03 05:03:15;;;;;;;6.03;5.43;;;14.40;70.00;;;;;;938896;151;27333;-73
2022/05/03 05:05:41;;;;;;;5.97;5.47;;;14.40;69.60;;;;;;938414;151;27673;-73
2022/05/03 05:08:08;;;;;;;5.57;5.07;;;14.50;69.70;;;;;;937537;151;27332;-74
2022/05/03 05:10:35;;;;;;;5.17;4.77;;;14.50;69.90;;;;;;939581;151;27327;-74
2022/05/03 05:13:01;;;;;;;5.60;5.20;;;14.60;69.90;;;;;;938046;151;27385;-73
2022/05/03 05:15:28;;;;;;;5.23;4.77;;;14.60;69.40;;;;;;939674;151;27360;-73
2022/05/03 05:17:54;;;;;;;5.33;4.83;;;14.60;69.80;;;;;;940000;151;27292;-74
2022/05/03 05:20:21;;;;;;;5.23;4.83;;;14.70;69.90;;;;;;939826;151;27336;-74
2022/05/03 05:22:48;;;;;;;5.30;4.80;;;14.70;69.90;;;;;;938609;148;27373;-73
2022/05/03 05:25:14;;;;;;;5.83;5.33;;;14.80;69.90;;;;;;937582;151;28305;-74
2022/05/03 05:27:41;;;;;;;5.23;4.83;;;14.80;70.00;;;;;;940409;151;27345;-74
2022/05/03 05:30:07;;;;;;;5.50;5.00;;;14.90;70.10;;;;;;938601;151;27365;-74
2022/05/03 05:32:34;;;;;;;5.73;5.13;;;14.90;70.10;;;;;;939076;149;27331;-74
2022/05/03 05:35:00;;;;;;;5.47;4.97;;;15.00;70.20;;;;;;938853;151;27465;-74
2022/05/03 05:37:27;;;;;;;5.67;4.87;;;15.10;70.10;;;;;;937626;151;27356;-74
2022/05/03 05:39:54;;;;;;;5.83;5.33;;;15.10;70.00;;;;;;926847;151;27299;-73
2022/05/03 05:42:20;;;;;;;5.27;4.77;;;15.20;69.70;;;;;;937471;151;27416;-73
2022/05/03 05:44:47;;;;;;;5.97;5.43;;;15.30;69.60;;;;;;939425;148;27447;-74
2022/05/03 05:47:14;;;;;;;8.67;5.67;;;15.40;69.50;;;;;;938742;151;27320;-74
2022/05/03 05:49:40;;;;;;;6.17;5.57;;;15.40;69.40;;;;;;938045;151;27359;-74
2022/05/03 05:54:51;;;;;;;6.33;5.83;;;15.60;69.00;;;;;;940407;148;27456;-74
2022/05/03 05:57:18;;;;;;;7.23;6.23;;;15.70;68.80;;;;;;939819;148;27431;-74
2022/05/03 05:59:45;;;;;;;7.15;6.50;;;15.70;68.70;;;;;;939557;151;27359;-74
2022/05/03 06:02:11;;;;;;;6.92;6.22;;;15.80;68.50;;;;;;939321;151;27458;-74
2022/05/03 06:04:38;;;;;;;6.25;5.72;;;15.90;68.40;;;;;;938179;151;27473;-74
2022/05/03 06:07:04;;;;;;;5.80;5.27;;;16.00;68.20;;;;;;938200;151;27462;-73
2022/05/03 06:09:31;;;;;;;6.05;5.45;;;16.10;68.30;;;;;;938968;151;27383;-73
2022/05/03 06:11:58;;;;;;;5.40;4.95;;;16.10;68.10;;;;;;939793;151;27390;-74
2022/05/03 06:14:24;;;;;;;5.55;5.05;;;16.20;68.20;;;;;;939848;151;27321;-72
2022/05/03 06:16:51;;;;;;;6.95;5.08;;;16.40;68.20;;;;;;937901;151;27438;-73
2022/05/03 06:19:17;;;;;;;5.83;5.33;;;16.50;68.00;;;;;;938252;151;27421;-72
2022/05/03 06:21:44;;;;;;;5.45;5.05;;;16.50;67.80;;;;;;938337;148;27389;-72
2022/05/03 06:24:11;;;;;;;6.37;5.28;;;16.60;67.70;;;;;;937377;149;27302;-73
2022/05/03 06:26:37;;;;;;;5.72;5.22;;;16.80;67.50;;;;;;939369;151;27276;-72
2022/05/03 06:29:05;;;;;;;5.50;5.00;;;16.90;67.20;;;;;;938180;151;27341;-72
2022/05/03 06:31:30;;;;;;;5.95;5.08;;;17.00;67.10;;;;;;935311;151;27446;-73
2022/05/03 06:33:57;;;;;;;5.97;4.85;;;17.10;67.00;;;;;;938962;151;27438;-73
2022/05/03 06:36:24;;;;;;;5.05;4.55;;;17.20;66.80;;;;;;938643;151;27415;-73
2022/05/03 06:38:50;;;;;;;5.17;4.35;;;17.40;66.70;;;;;;937893;151;27337;-73
2022/05/03 06:41:17;;;;;;;5.10;4.70;;;17.50;66.40;;;;;;939399;151;27346;-73
2022/05/03 06:43:43;;;;;;;5.10;4.70;;;17.60;66.10;;;;;;934977;151;27378;-72
2022/05/03 06:46:10;;;;;;;5.80;5.30;;;17.70;65.90;;;;;;938059;151;27372;-73
2022/05/03 06:48:36;;;;;;;5.62;5.12;;;17.80;65.70;;;;;;937723;148;27437;-72
2022/05/03 06:51:03;;;;;;;5.70;4.42;;;17.90;65.40;;;;;;938583;151;27377;-73
2022/05/03 06:53:30;;;;;;;5.60;4.65;;;17.90;65.30;;;;;;925087;151;28123;-72
2022/05/03 06:55:56;;;;;;;5.78;5.15;;;18.00;64.50;;;;;;938164;151;27345;-72
2022/05/03 06:58:23;;;;;;;5.60;5.10;;;18.10;65.20;;;;;;938331;151;27367;-72
2022/05/03 07:00:49;;;;;;;5.37;4.95;;;18.20;65.00;;;;;;922174;154;27413;-73
2022/05/03 07:03:19;;;;;;;5.10;4.70;;;18.40;64.90;;;;;;935493;151;28025;-73
2022/05/03 07:05:43;;;;;;;6.37;5.35;;;18.50;64.80;;;;;;935807;149;27302;-73
2022/05/03 07:08:10;;;;;;;5.22;4.72;;;18.60;64.60;;;;;;935792;151;27366;-73
2022/05/03 07:10:36;;;;;;;4.70;4.35;;;18.80;64.30;;;;;;932179;151;27472;-73
2022/05/03 07:13:03;;;;;;;4.95;4.58;;;18.90;64.00;;;;;;921204;154;27286;-73
2022/05/03 07:15:30;;;;;;;4.85;4.45;;;19.10;63.70;;;;;;929191;152;27438;-73
2022/05/03 07:23:26;;;;;;;5.28;4.83;;;19.60;63.20;;;;;;936188;151;27529;-73
2022/05/03 07:25:52;;;;;;;5.70;4.53;;;19.80;63.30;;;;;;931232;151;27466;-73
2022/05/03 07:28:18;;;;;;;4.78;4.37;;;19.90;62.50;;;;;;925185;151;27397;-73
2022/05/03 07:30:45;;;;;;;5.33;4.35;;;20.10;62.10;;;;;;937445;150;27249;-73
2022/05/03 07:33:11;;;;;;;5.15;4.65;;;20.30;61.70;;;;;;925166;154;27652;-73
2022/05/03 07:35:38;;;;;;;4.60;4.22;;;20.50;61.60;;;;;;929007;151;27352;-73
2022/05/03 07:38:05;;;;;;;4.72;4.33;;;20.70;61.50;;;;;;928985;152;27355;-73
2022/05/03 07:40:31;;;;;;;4.97;4.50;;;20.90;61.00;;;;;;931284;151;27396;-73
2022/05/03 07:42:58;;;;;;;4.08;3.87;;;21.10;60.50;;;;;;937595;151;27433;-73
2022/05/03 07:45:24;;;;;;;5.53;4.58;;;21.30;60.10;;;;;;937482;151;27438;-73
2022/05/03 07:47:51;;;;;;;4.45;4.12;;;21.40;59.80;;;;;;923307;151;27471;-73
2022/05/03 07:50:18;;;;;;;5.15;4.53;;;21.50;59.60;;;;;;930423;151;27448;-72
2022/05/03 07:52:44;;;;;;;4.80;4.40;;;21.60;59.30;;;;;;930617;152;27472;-72
2022/05/03 07:55:11;;;;;;;5.10;4.70;;;21.80;59.00;;;;;;928900;152;27395;-73
2022/05/03 07:57:37;;;;;;;4.67;4.30;;;22.00;58.80;;;;;;921316;154;27821;-73
2022/05/03 08:00:04;;;;;;;5.22;4.65;;;22.10;58.40;;;;;;939046;151;27318;-73
2022/05/03 08:02:31;;;;;;;8.33;5.03;;;22.20;58.20;;;;;;932381;154;27347;-73
2022/05/03 08:04:57;;;;;;;4.95;4.55;;;22.30;57.90;;;;;;938555;150;27489;-73
2022/05/03 08:07:24;;;;;;;5.30;4.33;;;22.50;57.80;;;;;;939190;151;27404;-73
2022/05/03 08:09:50;;;;;;;10.68;5.12;;;22.60;57.70;;;;;;938650;151;27293;-73
2022/05/03 08:12:17;;;;;;;5.10;4.60;;;22.80;57.60;;;;;;938378;148;27303;-73
2022/05/03 08:14:43;;;;;;;4.58;4.17;;;23.00;57.40;;;;;;932609;151;27347;-73
2022/05/03 08:17:10;;;;;;;4.25;3.95;;;23.30;57.30;;;;;;923115;153;27382;-73
2022/05/03 08:19:37;;;;;;;4.37;4.03;;;23.50;57.10;;;;;;924241;154;27864;-73
2022/05/03 08:22:03;;;;;;;5.53;4.50;;;23.70;56.70;;;;;;929041;152;27310;-73
2022/05/03 08:24:30;;;;;;;5.17;4.60;;;24.00;56.50;;;;;;927416;153;27325;-73
2022/05/03 08:26:56;;;;;;;4.92;4.40;;;24.30;56.10;;;;;;927845;153;27297;-73
2022/05/03 08:29:23;;;;;;;4.47;4.17;;;24.60;55.90;;;;;;929541;153;27329;-73
2022/05/03 08:31:50;;;;;;;5.12;4.08;;;24.90;55.60;;;;;;929504;153;27325;-73
2022/05/03 08:34:16;;;;;;;4.28;3.87;;;25.20;55.40;;;;;;928864;153;27775;-73
2022/05/03 08:42:01;;;;;;;4.20;3.83;;;25.50;55.20;;;;;;927462;153;27251;-73
2022/05/03 08:42:06;;;;;;;5.97;4.05;;;26.50;55.30;;;;;;927134;153;27317;-73
2022/05/03 08:44:30;;;;;;;4.83;4.20;;;27.00;54.70;;;;;;927218;153;27469;-73
2022/05/03 08:46:56;;;;;;;4.85;4.30;;;27.50;54.00;;;;;;927966;151;27366;-74
2022/05/03 08:49:23;;;;;;;5.67;4.45;;;27.90;51.60;;;;;;926110;153;27271;-73
2022/05/03 08:51:49;;;;;;;3.98;3.70;;;28.10;50.40;;;;;;928331;152;27349;-73
2022/05/03 08:54:16;;;;;;;4.72;4.37;;;28.20;50.20;;;;;;928150;150;27330;-73
2022/05/03 08:56:43;;;;;;;3.95;3.65;;;28.30;49.80;;;;;;928683;153;27352;-73
2022/05/03 08:59:09;;;;;;;4.33;3.87;;;28.30;48.90;;;;;;927563;153;27321;-73
2022/05/03 09:01:38;;;;;;;4.28;3.87;;;28.30;49.00;;;;;;928332;153;27367;-73
2022/05/03 09:04:02;;;;;;;4.35;3.95;;;28.20;49.00;;;;;;926502;153;27476;-74
2022/05/03 09:06:45;;;;;;;4.67;4.25;;;28.30;48.80;;;;;;929126;153;27867;-73
2022/05/03 09:09:11;;;;;;;4.67;4.20;;;28.30;48.30;;;;;;928594;153;27402;-73
2022/05/03 09:11:47;;;;;;;6.08;4.03;;;28.30;48.30;;;;;;927425;152;27446;-73
2022/05/03 09:14:13;;;;;;;5.15;4.17;;;28.30;48.40;;;;;;925627;152;27340;-74
2022/05/03 09:16:52;;;;;;;4.08;3.77;;;28.40;48.10;;;;;;925503;152;27315;-73
2022/05/03 09:19:24;;;;;;;3.60;3.30;;;28.40;48.10;;;;;;929304;152;27325;-73
2022/05/03 09:24:54;;;;;;;5.00;3.62;;;28.50;48.00;;;;;;928274;153;27470;-74
2022/05/03 09:27:21;;;;;;;4.03;3.72;;;28.70;48.00;;;;;;928346;153;28099;-73
2022/05/03 09:30:02;;;;;;;5.28;3.85;;;28.80;48.10;;;;;;927278;153;27329;-73
2022/05/03 09:32:38;;;;;;;4.47;4.08;;;29.10;48.00;;;;;;929338;152;27459;-73
2022/05/03 09:35:04;;;;;;;4.28;3.75;;;29.40;48.00;;;;;;929311;152;27324;-73
2022/05/03 09:37:40;;;;;;;5.37;3.50;;;29.90;48.10;;;;;;926403;150;27319;-73
2022/05/03 09:40:07;;;;;;;3.67;3.30;;;30.30;47.30;;;;;;927258;152;27350;-73
2022/05/03 09:42:33;;;;;;;3.87;3.58;;;30.80;47.20;;;;;;926698;150;27661;-73
2022/05/03 09:45:03;;;;;;;5.05;3.40;;;31.20;46.60;;;;;;926930;153;27336;-73
2022/05/03 09:47:26;;;;;;;3.58;3.27;;;31.70;45.50;;;;;;933684;148;28044;-73
2022/05/03 09:49:53;;;;;;;5.03;3.37;;;32.00;45.50;;;;;;937822;148;27349;-73
2022/05/03 09:52:28;;;;;;;3.22;2.75;;;32.30;45.00;;;;;;941567;148;27339;-73
2022/05/03 09:54:52;;;;;;;4.37;3.98;;;32.60;44.60;;;;;;937085;148;27881;-73
2022/05/03 09:57:21;;;;;;;3.47;3.27;;;32.70;43.60;;;;;;939725;148;27424;-73
2022/05/03 09:59:51;;;;;;;5.75;4.12;;;32.80;43.10;;;;;;938524;148;27930;-73
2022/05/03 10:02:17;;;;;;;4.22;3.80;;;32.80;41.90;;;;;;939771;148;27414;-73
2022/05/03 10:04:44;;;;;;;4.50;3.27;;;32.80;41.80;;;;;;940505;148;28025;-73
2022/05/03 10:07:11;;;;;;;3.08;2.87;;;32.60;41.60;;;;;;939329;148;27359;-73
2022/05/03 10:09:37;;;;;;;4.00;3.33;;;32.40;41.40;;;;;;941286;148;27904;-72
2022/05/03 10:12:04;;;;;;;4.80;3.47;;;32.20;41.40;;;;;;941126;148;27322;-73
2022/05/03 10:14:30;;;;;;;4.25;3.85;;;31.90;41.00;;;;;;939342;148;27270;-73
2022/05/03 10:22:26;;;;;;;3.60;3.17;;;31.10;41.00;;;;;;940853;148;27352;-73
2022/05/03 10:24:53;;;;;;;3.42;3.22;;;30.70;40.70;;;;;;939817;148;27348;-72
2022/05/03 10:27:19;;;;;;;3.58;3.27;;;30.40;40.70;;;;;;939322;148;27310;-72
2022/05/03 10:29:46;;;;;;;5.35;2.90;;;30.20;41.00;;;;;;939070;148;27342;-73
2022/05/03 10:32:14;;;;;;;3.92;3.40;;;29.90;41.00;;;;;;937132;148;28082;-73
2022/05/03 10:34:49;;;;;;;3.72;3.42;;;29.60;40.60;;;;;;938126;148;27351;-72
2022/05/03 10:37:16;;;;;;;3.50;3.20;;;29.30;41.10;;;;;;939022;148;27404;-72
2022/05/03 10:39:44;;;;;;;3.58;3.30;;;29.00;41.30;;;;;;940436;148;27331;-72
2022/05/03 10:42:11;;;;;;;4.62;3.42;;;28.80;41.50;;;;;;937584;148;27314;-73
2022/05/03 10:44:43;;;;;;;3.58;3.10;;;28.50;41.70;;;;;;938292;148;27854;-72
2022/05/03 10:47:07;;;;;;;3.92;3.62;;;28.30;41.90;;;;;;938971;148;27878;-73
2022/05/03 10:49:33;;;;;;;3.60;3.25;;;28.10;42.10;;;;;;941428;148;27303;-73
2022/05/03 10:52:00;;;;;;;3.80;3.30;;;28.00;42.10;;;;;;938830;148;27378;-73
2022/05/03 10:54:26;;;;;;;3.40;3.10;;;27.80;42.30;;;;;;940692;148;27428;-72
2022/05/03 10:57:02;;;;;;;7.90;3.60;;;27.70;42.50;;;;;;939090;148;27383;-72
2022/05/03 10:59:46;;;;;;;3.90;3.17;;;27.50;42.40;;;;;;938279;148;27863;-73
2022/05/03 11:02:13;;;;;;;3.33;3.10;;;27.40;42.40;;;;;;937751;148;27327;-73
2022/05/03 11:05:18;;;;;;;3.90;3.37;;;27.30;42.70;;;;;;939937;148;27537;-72
2022/05/03 11:08:15;;;;;;;4.45;3.02;;;27.20;42.70;;;;;;939698;148;27322;-72
2022/05/03 11:10:44;;;;;;;3.15;2.77;;;27.00;43.00;;;;;;937902;148;27347;-72
2022/05/03 11:13:41;;;;;;;2.62;2.47;;;26.90;43.00;;;;;;939257;148;27330;-72
2022/05/03 11:16:26;;;;;;;3.95;2.72;;;26.80;43.20;;;;;;939028;148;27411;-72
2022/05/03 11:18:52;;;;;;;3.40;2.72;;;26.70;43.30;;;;;;939991;148;27454;-72
2022/05/03 11:21:19;;;;;;;2.67;2.47;;;26.70;43.40;;;;;;938933;148;27340;-73
2022/05/03 11:23:51;;;;;;;3.33;3.02;;;26.60;43.20;;;;;;937618;148;28002;-72
2022/05/03 11:26:18;;;;;;;2.87;2.42;;;26.60;43.10;;;;;;938925;148;27336;-73
2022/05/03 11:28:49;;;;;;;3.37;3.08;;;26.50;43.20;;;;;;938975;148;27403;-72
2022/05/03 11:31:22;;;;;;;4.95;2.85;;;26.50;43.20;;;;;;939091;148;27398;-72
2022/05/03 11:33:55;;;;;;;2.98;2.77;;;26.50;43.30;;;;;;940642;148;27224;-73
2022/05/03 11:36:21;;;;;;;4.78;2.90;;;26.40;43.40;;;;;;937698;148;27296;-72
2022/05/03 11:38:50;;;;;;;3.45;3.15;;;26.40;43.40;;;;;;938803;148;27408;-73
2022/05/03 11:41:20;;;;;;;3.47;2.90;;;26.40;43.20;;;;;;940204;148;28471;-72
2022/05/03 11:43:47;;;;;;;3.08;2.87;;;26.40;43.20;;;;;;939335;148;27432;-72
2022/05/03 11:46:13;;;;;;;3.67;3.10;;;26.30;43.20;;;;;;938852;148;27327;-72
2022/05/03 11:48:39;;;;;;;2.90;2.70;;;26.30;43.10;;;;;;943746;147;27434;-73
2022/05/03 11:56:35;;;;;;;3.90;3.12;;;26.20;43.80;;;;;;937908;148;27330;-72
2022/05/03 11:59:02;;;;;;;3.47;3.12;;;26.20;43.90;;;;;;941620;148;27331;-73
2022/05/03 12:01:28;;;;;;;4.60;3.27;;;26.10;43.60;;;;;;942500;148;27466;-73
2022/05/03 12:03:55;;;;;;;3.50;3.20;;;26.10;43.80;;;;;;954095;146;27483;-72
2022/05/03 12:06:21;;;;;;;3.75;3.45;;;26.10;43.90;;;;;;953943;146;27811;-73
2022/05/03 12:08:50;;;;;;;3.40;3.10;;;26.10;44.00;;;;;;954761;146;27402;-73
2022/05/03 12:11:21;;;;;;;3.45;3.25;;;26.10;44.00;;;;;;955006;146;27333;-72
2022/05/03 12:13:47;;;;;;;3.47;3.17;;;26.10;44.10;;;;;;954126;146;27349;-72
2022/05/03 12:16:17;;;;;;;3.27;2.98;;;26.20;44.10;;;;;;958053;146;27994;-72
2022/05/03 12:18:43;;;;;;;4.22;3.42;;;26.20;44.10;;;;;;955641;146;27448;-72
2022/05/03 12:21:15;;;;;;;3.45;3.17;;;26.20;43.80;;;;;;956581;146;27364;-73
2022/05/03 12:23:45;;;;;;;3.98;3.47;;;26.20;43.80;;;;;;956811;146;27395;-73
2022/05/03 12:26:17;;;;;;;3.22;3.00;;;26.20;43.60;;;;;;955131;146;27383;-73
2022/05/03 12:28:44;;;;;;;3.52;3.00;;;26.30;43.80;;;;;;956324;146;27501;-72
2022/05/03 12:31:12;;;;;;;3.30;3.00;;;26.20;43.70;;;;;;954174;146;27821;-73
2022/05/03 12:33:40;;;;;;;3.65;3.22;;;26.30;43.70;;;;;;955552;146;27361;-72
2022/05/03 12:36:08;;;;;;;4.28;3.50;;;26.30;43.60;;;;;;954412;146;27451;-73
2022/05/03 12:38:33;;;;;;;4.30;3.90;;;26.30;43.70;;;;;;953409;146;27789;-73
2022/05/03 12:41:00;;;;;;;3.70;3.40;;;26.30;43.30;;;;;;955065;146;27364;-73
2022/05/03 12:43:29;;;;;;;2.85;2.62;;;26.30;43.40;;;;;;954880;146;27401;-72
2022/05/03 12:46:02;;;;;;;3.40;3.10;;;26.30;43.60;;;;;;953649;146;27437;-72
2022/05/03 12:48:28;;;;;;;3.47;3.12;;;26.40;43.60;;;;;;953422;146;27358;-72
2022/05/03 12:50:55;;;;;;;5.50;3.17;;;26.40;43.40;;;;;;946699;147;27309;-73
2022/05/03 12:53:30;;;;;;;3.20;3.00;;;26.50;43.00;;;;;;946668;147;27354;-73
2022/05/03 12:55:57;;;;;;;4.37;3.25;;;26.50;43.10;;;;;;944505;147;27874;-72
2022/05/03 12:58:25;;;;;;;3.17;2.87;;;26.50;43.00;;;;;;946121;147;27319;-72
2022/05/03 13:00:50;;;;;;;3.22;2.92;;;26.60;43.00;;;;;;944707;147;27412;-72
2022/05/03 13:03:17;;;;;;;3.25;2.95;;;26.60;43.20;;;;;;946320;147;27701;-72
2022/05/03 13:05:43;;;;;;;3.60;3.30;;;26.70;43.30;;;;;;945973;147;27390;-72
2022/05/03 13:08:10;;;;;;;3.60;3.08;;;26.80;43.60;;;;;;945160;147;27421;-72
2022/05/03 13:10:36;;;;;;;3.17;2.98;;;26.90;42.70;;;;;;946150;147;27339;-73
2022/05/03 13:13:03;;;;;;;4.30;3.35;;;27.00;42.60;;;;;;947541;147;27381;-72
2022/05/03 13:15:30;;;;;;;3.47;3.17;;;27.00;42.30;;;;;;944611;147;27321;-72
2022/05/03 13:17:56;;;;;;;3.25;3.02;;;27.10;42.50;;;;;;948217;147;27451;-72
2022/05/03 13:20:23;;;;;;;3.30;3.00;;;27.10;42.30;;;;;;945212;147;27355;-72
2022/05/03 13:22:49;;;;;;;2.92;2.70;;;27.10;42.30;;;;;;946475;147;27276;-72
2022/05/03 13:25:16;;;;;;;3.40;3.17;;;27.10;42.40;;;;;;945533;147;27346;-73
2022/05/03 13:27:42;;;;;;;4.35;3.17;;;27.10;42.00;;;;;;946749;147;28152;-73
2022/05/03 13:30:09;;;;;;;3.70;3.40;;;27.10;42.10;;;;;;947343;147;27292;-73
2022/05/03 13:32:36;;;;;;;3.47;3.17;;;27.00;41.80;;;;;;946387;147;27341;-72
2022/05/03 13:35:02;;;;;;;3.50;3.20;;;27.00;42.00;;;;;;944303;147;27984;-72